Time;durP1;ratioP1;P1;durP2;ratioP2;P2;SDS_P1;SDS_P2;PMS_P1;PMS_P2;Temp;Humidity;BMP_temperature;BMP_pressure;BME280_temperature;BME280_humidity;BME280_pressure;Samples;Min_cycle;Max_cycle;Signal;HPM_P1;HPM_P2
2022/03/03 00:00:23;;;;;;;80.93;58.57;;;2.30;99.90;;;;;;4997928;28;20057;-71
2022/03/03 00:02:49;;;;;;;80.30;58.83;;;2.30;99.90;;;;;;5000821;28;20049;-74
2022/03/03 00:05:15;;;;;;;79.90;57.87;;;2.40;99.90;;;;;;4983065;28;20046;-74
2022/03/03 00:07:41;;;;;;;79.93;58.50;;;2.30;99.90;;;;;;5004218;28;20391;-71
2022/03/03 00:10:08;;;;;;;85.37;59.37;;;2.30;99.90;;;;;;4967599;28;20146;-72
2022/03/03 00:12:34;;;;;;;80.30;58.07;;;2.30;99.90;;;;;;4966694;28;20054;-72
2022/03/03 00:15:00;;;;;;;82.13;60.03;;;2.30;99.90;;;;;;4965914;28;20447;-72
2022/03/03 00:17:27;;;;;;;85.47;58.03;;;2.30;99.90;;;;;;4991319;28;20413;-72
2022/03/03 00:19:53;;;;;;;83.47;61.10;;;2.20;99.90;;;;;;4986468;28;20046;-72
2022/03/03 00:22:19;;;;;;;81.17;58.73;;;2.20;99.90;;;;;;4986875;28;20141;-72
2022/03/03 00:24:45;;;;;;;81.50;58.30;;;2.10;99.90;;;;;;4969614;28;20049;-72
2022/03/03 00:27:11;;;;;;;77.60;56.67;;;2.10;99.90;;;;;;4969077;28;20046;-72
2022/03/03 00:29:37;;;;;;;78.77;56.80;;;2.10;99.90;;;;;;4968807;28;20137;-72
2022/03/03 00:32:03;;;;;;;79.87;57.10;;;2.00;99.90;;;;;;4985276;28;20125;-73
2022/03/03 00:34:29;;;;;;;76.87;55.30;;;2.00;99.90;;;;;;4994132;28;20046;-72
2022/03/03 00:36:58;;;;;;;75.87;55.17;;;2.00;99.90;;;;;;5007034;28;20104;-73
2022/03/03 00:39:24;;;;;;;77.63;56.00;;;2.00;99.90;;;;;;5007633;28;20042;-72
2022/03/03 00:41:49;;;;;;;78.17;57.27;;;1.90;99.90;;;;;;4985617;28;20048;-73
2022/03/03 00:44:15;;;;;;;74.30;54.33;;;1.90;99.90;;;;;;4990137;28;20315;-73
2022/03/03 00:46:41;;;;;;;77.67;55.40;;;1.90;99.90;;;;;;4989829;28;20100;-74
2022/03/03 00:49:07;;;;;;;78.90;56.60;;;1.80;99.90;;;;;;4972586;28;20097;-73
2022/03/03 00:51:34;;;;;;;80.37;58.57;;;1.80;99.90;;;;;;4989035;28;20042;-73
2022/03/03 00:54:00;;;;;;;75.67;54.80;;;1.80;99.90;;;;;;4989054;28;20461;-73
2022/03/03 00:56:26;;;;;;;76.47;55.43;;;1.80;99.90;;;;;;4987715;28;20058;-74
2022/03/03 00:58:52;;;;;;;69.80;52.63;;;1.80;99.90;;;;;;4988876;28;20054;-74
2022/03/03 01:01:18;;;;;;;72.17;52.37;;;1.80;99.90;;;;;;4995981;28;20300;-73
2022/03/03 01:03:44;;;;;;;69.23;53.63;;;1.70;99.90;;;;;;5005871;28;20061;-72
2022/03/03 01:06:11;;;;;;;71.13;52.73;;;1.70;99.90;;;;;;4991032;28;20042;-73
2022/03/03 01:08:37;;;;;;;67.93;51.50;;;1.70;99.90;;;;;;4999475;28;20082;-73
2022/03/03 01:11:05;;;;;;;65.20;49.93;;;1.60;99.90;;;;;;4972194;28;20125;-72
2022/03/03 01:13:31;;;;;;;67.47;50.33;;;1.60;99.90;;;;;;4972641;28;20081;-74
2022/03/03 01:15:57;;;;;;;64.53;49.73;;;1.50;99.90;;;;;;5008266;28;20085;-73
2022/03/03 01:18:23;;;;;;;73.60;52.33;;;1.40;99.90;;;;;;4990742;28;20061;-72
2022/03/03 01:20:49;;;;;;;66.93;51.47;;;1.40;99.90;;;;;;4975474;28;20488;-73
2022/03/03 01:23:16;;;;;;;69.63;50.67;;;1.30;99.90;;;;;;4990048;28;20061;-73
2022/03/03 01:25:42;;;;;;;66.30;51.17;;;1.30;99.90;;;;;;4988337;28;20076;-72
2022/03/03 01:28:08;;;;;;;71.07;52.83;;;1.20;99.90;;;;;;4987783;28;20074;-72
2022/03/03 01:30:34;;;;;;;71.33;52.37;;;1.10;99.90;;;;;;4996585;28;20161;-73
2022/03/03 01:32:59;;;;;;;69.27;53.40;;;1.10;99.90;;;;;;4996636;28;20134;-72
2022/03/03 01:35:28;;;;;;;64.70;50.17;;;1.00;99.90;;;;;;4991821;28;20127;-72
2022/03/03 01:37:54;;;;;;;65.20;50.70;;;1.00;99.90;;;;;;4996222;28;20050;-73
2022/03/03 01:40:22;;;;;;;70.60;53.80;;;1.00;99.90;;;;;;4997156;28;20043;-73
2022/03/03 01:42:50;;;;;;;70.53;52.30;;;1.00;99.90;;;;;;4997321;28;20497;-72
2022/03/03 01:45:18;;;;;;;64.93;49.00;;;1.00;99.90;;;;;;5000927;28;20842;-73
2022/03/03 01:47:44;;;;;;;72.10;52.90;;;1.00;99.90;;;;;;5001402;28;20081;-73
2022/03/03 01:50:10;;;;;;;72.17;53.93;;;1.00;99.90;;;;;;4995856;28;20505;-72
2022/03/03 01:52:36;;;;;;;76.47;55.33;;;0.80;99.90;;;;;;4998502;28;20817;-72
2022/03/03 01:55:03;;;;;;;78.30;56.03;;;0.80;99.90;;;;;;4967943;28;20088;-73
2022/03/03 01:57:30;;;;;;;71.43;52.67;;;0.70;99.90;;;;;;4981892;28;20049;-74
2022/03/03 01:59:59;;;;;;;72.10;55.37;;;0.60;99.90;;;;;;4980111;28;20037;-73
2022/03/03 02:02:27;;;;;;;72.37;55.43;;;0.60;99.90;;;;;;4988107;28;20108;-73
2022/03/03 02:04:54;;;;;;;76.50;59.33;;;0.60;99.90;;;;;;4991326;28;20838;-73
2022/03/03 02:07:20;;;;;;;75.13;57.40;;;0.70;99.90;;;;;;4989284;28;20053;-73
2022/03/03 02:09:46;;;;;;;77.30;58.50;;;0.80;99.90;;;;;;4992073;28;20049;-73
2022/03/03 02:12:12;;;;;;;71.40;56.57;;;0.90;99.90;;;;;;4982249;28;20479;-73
2022/03/03 02:14:46;;;;;;;77.37;57.37;;;0.90;99.90;;;;;;4981091;28;20515;-73
2022/03/03 02:17:12;;;;;;;77.97;58.43;;;1.00;99.90;;;;;;4998149;28;20057;-73
2022/03/03 02:19:39;;;;;;;75.13;57.53;;;0.90;99.90;;;;;;4993457;28;20512;-73
2022/03/03 02:22:05;;;;;;;72.73;57.43;;;1.00;99.90;;;;;;5001935;28;20090;-73
2022/03/03 02:24:31;;;;;;;72.33;57.20;;;1.00;99.90;;;;;;4984719;28;20478;-74
2022/03/03 02:26:59;;;;;;;68.87;55.27;;;1.00;99.90;;;;;;4991056;28;20038;-74
2022/03/03 02:29:25;;;;;;;68.87;55.73;;;0.90;99.90;;;;;;4995403;28;20104;-73
2022/03/03 02:31:51;;;;;;;72.83;55.97;;;0.90;99.90;;;;;;4972375;28;20859;-73
2022/03/03 02:34:17;;;;;;;74.67;55.93;;;0.80;99.90;;;;;;4976776;28;20050;-73
2022/03/03 02:36:43;;;;;;;67.70;53.17;;;0.80;99.90;;;;;;4996065;28;20046;-74
2022/03/03 02:39:08;;;;;;;72.00;54.90;;;0.70;99.90;;;;;;5007866;28;20476;-73
2022/03/03 02:41:34;;;;;;;64.73;52.13;;;0.70;99.90;;;;;;4994605;28;20050;-73
2022/03/03 02:44:02;;;;;;;67.57;53.63;;;0.70;99.90;;;;;;4995796;28;20049;-74
2022/03/03 02:46:28;;;;;;;74.37;57.00;;;0.60;99.90;;;;;;4995142;28;20089;-74
2022/03/03 02:48:53;;;;;;;70.37;54.90;;;0.60;99.90;;;;;;4998976;28;20041;-74
2022/03/03 02:51:19;;;;;;;64.90;52.27;;;0.60;99.90;;;;;;5021566;28;20125;-74
2022/03/03 02:53:46;;;;;;;71.90;54.93;;;0.50;99.90;;;;;;4989743;28;20377;-73
2022/03/03 02:56:12;;;;;;;84.30;61.47;;;0.50;99.90;;;;;;5004039;28;20104;-73
2022/03/03 02:58:37;;;;;;;70.80;53.50;;;0.50;99.90;;;;;;5006005;28;20062;-73
2022/03/03 03:01:05;;;;;;;70.60;55.57;;;0.40;99.90;;;;;;4992395;28;20046;-72
2022/03/03 03:03:31;;;;;;;75.07;58.10;;;0.40;99.90;;;;;;4972167;28;20184;-72
2022/03/03 03:05:57;;;;;;;75.97;59.27;;;0.40;99.90;;;;;;4988044;28;20113;-73
2022/03/03 03:08:23;;;;;;;72.97;57.23;;;0.30;99.90;;;;;;4978198;28;20457;-72
2022/03/03 03:10:49;;;;;;;75.90;57.73;;;0.20;99.90;;;;;;5009477;28;20050;-72
2022/03/03 03:13:14;;;;;;;77.63;58.13;;;0.10;99.90;;;;;;5009334;28;20474;-72
2022/03/03 03:15:43;;;;;;;80.83;58.93;;;0.00;99.90;;;;;;4952371;28;1281515;-72
2022/03/03 03:18:09;;;;;;;83.30;61.07;;;-0.10;99.90;;;;;;4993254;28;20051;-71
2022/03/03 03:20:36;;;;;;;75.70;58.23;;;-0.20;99.90;;;;;;4992179;28;20141;-72
2022/03/03 03:23:02;;;;;;;82.30;60.73;;;-0.20;99.90;;;;;;4973902;28;20042;-72
2022/03/03 03:25:31;;;;;;;77.10;59.47;;;-0.30;99.90;;;;;;4991021;28;20112;-72
2022/03/03 03:27:57;;;;;;;78.33;61.20;;;-0.20;99.90;;;;;;4990285;28;20177;-72
2022/03/03 03:30:22;;;;;;;84.03;62.03;;;-0.30;99.90;;;;;;4974435;28;20133;-72
2022/03/03 03:32:48;;;;;;;82.47;62.97;;;-0.30;99.90;;;;;;5002327;28;20481;-72
2022/03/03 03:35:14;;;;;;;86.50;64.33;;;-0.30;99.90;;;;;;4990671;28;20145;-72
2022/03/03 03:37:40;;;;;;;81.87;62.10;;;-0.30;99.90;;;;;;4964896;28;20046;-72
2022/03/03 03:40:08;;;;;;;82.47;64.13;;;-0.30;99.90;;;;;;5007901;28;20038;-72
2022/03/03 03:42:34;;;;;;;82.67;63.83;;;-0.30;99.90;;;;;;4974144;28;20212;-72
2022/03/03 03:45:00;;;;;;;75.40;60.63;;;-0.20;99.90;;;;;;4973939;28;20128;-72
2022/03/03 03:47:26;;;;;;;80.47;61.50;;;0.00;99.90;;;;;;4986961;28;20058;-72
2022/03/03 03:49:52;;;;;;;79.50;60.83;;;0.10;99.90;;;;;;4972448;28;20548;-72
2022/03/03 03:52:17;;;;;;;75.23;59.77;;;0.30;99.90;;;;;;4972688;28;20061;-72
2022/03/03 03:54:43;;;;;;;77.73;60.97;;;0.30;99.90;;;;;;4992676;28;20042;-72
2022/03/03 03:57:09;;;;;;;77.83;62.53;;;0.40;99.90;;;;;;4993804;28;20124;-72
2022/03/03 03:59:35;;;;;;;76.10;61.70;;;0.50;99.90;;;;;;4981963;28;20393;-71
2022/03/03 04:02:01;;;;;;;71.30;59.07;;;0.50;99.90;;;;;;4995059;28;20037;-71
2022/03/03 04:04:26;;;;;;;73.23;59.97;;;0.60;99.90;;;;;;5002073;28;20362;-72
2022/03/03 04:06:52;;;;;;;72.80;57.50;;;0.70;99.90;;;;;;4984901;28;20039;-72
2022/03/03 04:09:18;;;;;;;75.27;61.10;;;0.80;99.90;;;;;;4993752;28;20045;-72
2022/03/03 04:11:44;;;;;;;71.60;57.90;;;0.80;99.90;;;;;;4985051;28;20077;-72
2022/03/03 04:14:09;;;;;;;71.53;57.80;;;0.80;99.90;;;;;;4976889;28;20054;-72
2022/03/03 04:16:35;;;;;;;72.37;57.60;;;0.80;99.90;;;;;;4985634;28;20054;-72
2022/03/03 04:19:01;;;;;;;71.87;57.77;;;0.80;99.90;;;;;;4997040;28;20045;-72
2022/03/03 04:21:27;;;;;;;67.67;55.83;;;0.90;99.90;;;;;;4996061;28;20081;-71
2022/03/03 04:23:53;;;;;;;69.97;56.90;;;0.90;99.90;;;;;;4980982;28;20033;-71
2022/03/03 04:26:20;;;;;;;67.40;55.77;;;0.80;99.90;;;;;;5006022;28;20038;-72
2022/03/03 04:28:46;;;;;;;65.83;55.27;;;0.80;99.90;;;;;;5004524;28;20068;-72
2022/03/03 04:31:12;;;;;;;67.60;55.90;;;0.80;99.90;;;;;;5004186;28;20050;-72
2022/03/03 04:33:38;;;;;;;63.97;53.40;;;0.80;99.90;;;;;;4980935;28;20061;-72
2022/03/03 04:36:05;;;;;;;62.77;51.27;;;0.80;99.90;;;;;;4993253;28;20034;-72
2022/03/03 04:38:31;;;;;;;61.30;50.83;;;0.80;99.90;;;;;;4982558;28;20041;-72
2022/03/03 04:40:57;;;;;;;63.43;52.97;;;0.80;99.90;;;;;;4997442;28;20885;-72
2022/03/03 04:43:22;;;;;;;61.27;51.07;;;0.80;99.90;;;;;;4990081;28;20043;-71
2022/03/03 04:45:48;;;;;;;62.60;50.93;;;0.80;99.90;;;;;;4990970;28;20046;-72
2022/03/03 04:48:14;;;;;;;60.77;51.40;;;0.80;99.90;;;;;;4983884;28;20125;-72
2022/03/03 04:50:40;;;;;;;58.47;50.57;;;0.90;99.90;;;;;;4990466;28;20038;-73
2022/03/03 04:53:06;;;;;;;58.93;47.63;;;0.80;99.90;;;;;;4990670;28;20500;-72
2022/03/03 04:55:32;;;;;;;58.70;49.53;;;0.90;99.90;;;;;;4974101;28;20053;-72
2022/03/03 04:57:57;;;;;;;59.10;48.30;;;0.80;99.90;;;;;;4997740;28;20144;-72
2022/03/03 05:00:23;;;;;;;55.30;46.70;;;0.80;99.90;;;;;;4987187;28;20062;-72
2022/03/03 05:02:49;;;;;;;53.50;46.47;;;0.80;99.90;;;;;;4974053;28;20056;-72
2022/03/03 05:05:15;;;;;;;50.27;43.37;;;0.80;99.90;;;;;;4987727;28;20044;-72
2022/03/03 05:07:41;;;;;;;49.87;43.07;;;0.80;99.90;;;;;;4972964;28;20054;-74
2022/03/03 05:10:07;;;;;;;46.70;41.53;;;0.90;99.90;;;;;;5004250;28;20038;-71
2022/03/03 05:12:33;;;;;;;51.00;44.37;;;1.00;99.90;;;;;;4988480;28;20062;-71
2022/03/03 05:14:59;;;;;;;48.77;42.47;;;1.00;99.90;;;;;;4977907;28;20050;-71
2022/03/03 05:17:25;;;;;;;45.20;40.30;;;1.10;99.90;;;;;;5008484;28;20053;-71
2022/03/03 05:19:51;;;;;;;49.63;41.40;;;1.10;99.90;;;;;;4972477;28;20057;-71
2022/03/03 05:22:17;;;;;;;45.33;39.20;;;1.10;99.90;;;;;;4988665;28;20700;-71
2022/03/03 05:24:43;;;;;;;47.13;41.80;;;1.10;99.90;;;;;;4972137;28;20085;-71
2022/03/03 05:27:10;;;;;;;48.73;40.27;;;1.10;99.90;;;;;;4972012;28;20489;-72
2022/03/03 05:29:35;;;;;;;49.80;42.57;;;1.10;99.90;;;;;;5000672;28;20120;-71
2022/03/03 05:32:02;;;;;;;48.03;40.87;;;1.10;99.90;;;;;;5007700;28;20148;-71
2022/03/03 05:34:28;;;;;;;48.77;41.50;;;1.10;99.90;;;;;;5008186;28;20054;-71
2022/03/03 05:36:54;;;;;;;46.13;41.13;;;1.10;99.90;;;;;;4973801;28;20416;-71
2022/03/03 05:39:21;;;;;;;46.73;41.63;;;1.00;99.90;;;;;;4970776;28;20057;-70
2022/03/03 05:41:47;;;;;;;45.13;39.50;;;1.00;99.90;;;;;;4988618;28;20047;-71
2022/03/03 05:44:13;;;;;;;45.73;39.73;;;1.00;99.90;;;;;;4956627;28;20107;-71
2022/03/03 05:46:42;;;;;;;46.03;39.53;;;1.00;99.90;;;;;;4988169;28;20061;-71
2022/03/03 05:49:09;;;;;;;46.73;40.00;;;1.00;99.90;;;;;;4971905;28;20104;-70
2022/03/03 05:51:35;;;;;;;45.93;39.67;;;0.90;99.90;;;;;;4987974;28;20541;-73
2022/03/03 05:54:01;;;;;;;48.97;43.43;;;0.90;99.90;;;;;;4972177;28;20074;-73
2022/03/03 05:56:32;;;;;;;48.80;43.20;;;0.80;99.90;;;;;;4980956;28;20065;-72
2022/03/03 05:59:05;;;;;;;;;;;0.70;99.90;;;;;;4984415;28;20060;-73
2022/03/03 06:01:31;;;;;;;50.23;42.60;;;0.70;99.90;;;;;;4983238;28;19972;-73
2022/03/03 06:04:00;;;;;;;51.47;42.57;;;0.70;99.90;;;;;;4986353;28;20105;-73
2022/03/03 06:06:28;;;;;;;52.00;43.07;;;0.50;99.90;;;;;;4982148;28;20050;-70
2022/03/03 06:08:57;;;;;;;51.50;45.20;;;0.50;99.90;;;;;;4973217;28;20385;-70
2022/03/03 06:11:25;;;;;;;51.07;44.73;;;0.40;99.90;;;;;;4994854;28;20057;-70
2022/03/03 06:13:53;;;;;;;52.73;46.50;;;0.40;99.90;;;;;;4990324;28;20450;-70
2022/03/03 06:16:20;;;;;;;54.73;45.73;;;0.40;99.90;;;;;;5001315;28;20053;-71
2022/03/03 06:18:48;;;;;;;58.23;46.47;;;0.40;99.90;;;;;;4999815;28;20046;-71
2022/03/03 06:21:15;;;;;;;53.27;46.47;;;0.30;99.90;;;;;;4996115;28;20358;-71
2022/03/03 06:23:41;;;;;;;55.90;49.30;;;0.30;99.90;;;;;;4991693;28;20117;-72
2022/03/03 06:26:11;;;;;;;53.27;47.47;;;0.30;99.90;;;;;;4972520;28;20046;-70
2022/03/03 06:28:37;;;;;;;56.07;47.90;;;0.30;99.90;;;;;;4985919;28;20040;-71
2022/03/03 06:31:05;;;;;;;56.23;49.33;;;0.30;99.90;;;;;;4986134;28;20129;-71
2022/03/03 06:33:31;;;;;;;55.20;48.93;;;0.20;99.90;;;;;;4991776;28;20053;-71
2022/03/03 06:35:57;;;;;;;55.73;48.37;;;0.30;99.90;;;;;;4997178;28;20046;-71
2022/03/03 06:38:23;;;;;;;56.57;48.80;;;0.30;99.90;;;;;;4989537;28;20053;-71
2022/03/03 06:40:49;;;;;;;52.60;46.67;;;0.30;99.90;;;;;;5017970;28;20077;-71
2022/03/03 06:43:15;;;;;;;57.23;48.60;;;0.40;99.90;;;;;;4997544;28;20054;-72
2022/03/03 06:45:41;;;;;;;52.17;45.60;;;0.40;99.90;;;;;;4997171;28;20060;-72
2022/03/03 06:48:07;;;;;;;54.07;46.00;;;0.40;99.90;;;;;;4997014;28;20042;-72
2022/03/03 06:50:39;;;;;;;50.90;45.37;;;0.50;99.90;;;;;;4978006;28;20080;-69
2022/03/03 06:53:07;;;;;;;52.50;45.70;;;0.60;99.90;;;;;;4979133;28;20077;-78
2022/03/03 06:55:33;;;;;;;51.37;45.27;;;0.70;99.90;;;;;;4979321;28;20046;-78
2022/03/03 06:58:00;;;;;;;52.43;44.30;;;0.70;99.90;;;;;;4974221;28;20048;-79
2022/03/03 07:00:34;;;;;;;49.93;44.43;;;0.70;99.90;;;;;;4971964;28;20076;-80
2022/03/03 07:03:04;;;;;;;49.37;43.97;;;0.80;99.90;;;;;;4981870;28;20054;-80
2022/03/03 07:05:31;;;;;;;51.58;45.38;;;0.80;99.90;;;;;;4996242;28;20054;-79
2022/03/03 07:07:57;;;;;;;49.37;44.00;;;0.80;99.90;;;;;;4997734;28;20452;-80
2022/03/03 07:10:25;;;;;;;49.50;42.93;;;0.80;99.90;;;;;;4995547;28;20416;-80
2022/03/03 07:12:56;;;;;;;48.17;42.77;;;0.80;99.90;;;;;;4979745;28;20388;-80
2022/03/03 07:15:24;;;;;;;50.40;43.80;;;0.90;99.90;;;;;;4985408;28;20085;-80
2022/03/03 07:18:01;;;;;;;51.13;44.17;;;0.90;99.90;;;;;;4983507;28;20042;-78
2022/03/03 07:20:31;;;;;;;46.93;41.80;;;1.00;99.90;;;;;;4989802;28;20065;-80
2022/03/03 07:23:36;;;;;;;48.85;42.08;;;1.00;99.90;;;;;;5007139;28;20053;-80
2022/03/03 07:26:08;;;;;;;44.10;39.30;;;1.00;99.90;;;;;;4978608;28;20377;-80
2022/03/03 07:28:38;;;;;;;44.47;39.67;;;1.10;99.90;;;;;;4996771;28;20038;-75
2022/03/03 07:31:04;;;;;;;44.45;39.10;;;1.20;99.90;;;;;;4971803;28;20042;-75
2022/03/03 07:33:53;;;;;;;43.27;38.63;;;1.30;99.90;;;;;;5020520;28;20511;-76
2022/03/03 07:36:34;;;;;;;43.40;38.10;;;1.40;99.90;;;;;;5014020;28;20064;-75
2022/03/03 07:39:06;;;;;;;42.87;37.53;;;1.50;99.90;;;;;;4995367;28;20046;-76
2022/03/03 07:41:32;;;;;;;42.80;38.13;;;1.60;99.90;;;;;;4979418;28;20743;-75
2022/03/03 07:43:59;;;;;;;41.37;36.10;;;1.70;99.90;;;;;;4987977;28;20062;-76
2022/03/03 07:46:27;;;;;;;43.97;36.43;;;1.90;99.90;;;;;;4993512;28;20133;-76
2022/03/03 07:48:53;;;;;;;39.00;34.60;;;2.00;99.90;;;;;;4988230;28;20205;-76
2022/03/03 07:51:20;;;;;;;42.27;36.13;;;2.10;99.90;;;;;;4972175;28;20056;-77
2022/03/03 07:53:47;;;;;;;38.20;34.20;;;2.10;99.90;;;;;;4982951;28;20451;-76
2022/03/03 07:56:21;;;;;;;37.13;33.23;;;2.30;99.90;;;;;;4972764;28;20128;-77
2022/03/03 07:58:50;;;;;;;39.80;34.50;;;2.40;99.90;;;;;;4982515;28;20038;-75
2022/03/03 08:01:19;;;;;;;38.80;34.40;;;2.50;99.90;;;;;;4977637;28;20532;-76
2022/03/03 08:03:46;;;;;;;37.05;33.08;;;2.50;99.90;;;;;;4992627;28;20046;-76
2022/03/03 08:06:15;;;;;;;39.40;35.20;;;2.60;99.90;;;;;;4973464;28;20470;-77
2022/03/03 08:08:41;;;;;;;36.83;32.93;;;2.60;99.90;;;;;;4979730;28;20041;-73
2022/03/03 08:11:09;;;;;;;38.13;33.63;;;2.70;99.90;;;;;;4980195;28;20042;-76
2022/03/03 08:13:36;;;;;;;37.67;32.20;;;2.90;99.90;;;;;;4993207;28;20080;-76
2022/03/03 08:16:03;;;;;;;36.10;32.20;;;3.00;99.90;;;;;;4980203;28;20200;-76
2022/03/03 08:18:31;;;;;;;36.60;32.30;;;3.10;99.90;;;;;;4973482;28;20126;-76
2022/03/03 08:21:00;;;;;;;37.43;32.87;;;3.30;99.90;;;;;;4975002;28;20309;-76
2022/03/03 08:23:30;;;;;;;37.67;32.97;;;3.40;99.90;;;;;;5003304;28;20290;-75
2022/03/03 08:25:57;;;;;;;36.60;30.63;;;3.60;99.90;;;;;;4971557;28;20584;-76
2022/03/03 08:28:24;;;;;;;37.37;30.60;;;3.70;99.90;;;;;;4985343;28;20038;-75
2022/03/03 08:31:00;;;;;;;33.70;29.20;;;3.80;99.90;;;;;;4982527;28;20053;-74
2022/03/03 08:33:49;;;;;;;32.03;28.53;;;4.00;99.90;;;;;;4971709;28;20501;-75
2022/03/03 08:36:22;;;;;;;33.27;28.93;;;4.10;99.90;;;;;;4980855;28;20067;-74
2022/03/03 08:38:53;;;;;;;32.30;28.00;;;4.30;99.90;;;;;;4980837;28;20069;-75
2022/03/03 08:41:23;;;;;;;30.90;27.57;;;4.50;99.90;;;;;;4985853;28;20050;-74
2022/03/03 08:43:53;;;;;;;31.33;27.55;;;4.60;99.90;;;;;;4986893;28;20374;-74
2022/03/03 08:46:24;;;;;;;29.05;25.48;;;4.60;99.90;;;;;;4996795;28;20046;-74
2022/03/03 08:48:51;;;;;;;30.93;27.47;;;4.70;99.90;;;;;;4979399;28;20070;-75
2022/03/03 08:51:19;;;;;;;29.70;26.50;;;4.80;99.90;;;;;;4970833;28;20065;-74
2022/03/03 08:53:46;;;;;;;29.73;25.80;;;4.90;99.90;;;;;;4965819;28;20043;-75
2022/03/03 08:56:12;;;;;;;29.30;25.80;;;5.00;99.90;;;;;;4966178;28;20390;-75
2022/03/03 08:58:38;;;;;;;31.10;26.90;;;5.20;99.90;;;;;;4948523;28;20060;-75
2022/03/03 09:01:04;;;;;;;28.23;25.20;;;5.30;99.90;;;;;;4978808;28;20041;-74
2022/03/03 09:03:30;;;;;;;27.77;24.57;;;5.40;99.90;;;;;;4961381;28;20042;-74
2022/03/03 09:05:56;;;;;;;29.20;25.90;;;5.40;99.80;;;;;;4963057;28;20038;-74
2022/03/03 09:08:23;;;;;;;27.90;25.00;;;5.50;99.90;;;;;;4986743;28;20043;-75
2022/03/03 09:10:50;;;;;;;29.92;25.08;;;5.60;99.00;;;;;;4977438;28;20523;-74
2022/03/03 09:13:16;;;;;;;29.17;25.98;;;5.60;99.10;;;;;;4983112;28;20194;-73
2022/03/03 09:15:42;;;;;;;29.60;26.40;;;5.70;99.40;;;;;;4973970;28;20054;-74
2022/03/03 09:18:08;;;;;;;28.10;25.02;;;5.60;98.90;;;;;;4946068;28;20053;-75
2022/03/03 09:20:34;;;;;;;29.10;26.00;;;5.70;99.30;;;;;;4972508;28;20058;-74
2022/03/03 09:23:01;;;;;;;32.60;25.20;;;5.70;98.80;;;;;;5011844;28;20042;-75
2022/03/03 09:25:27;;;;;;;28.25;24.33;;;5.80;99.30;;;;;;5000553;28;20520;-73
2022/03/03 09:27:53;;;;;;;27.42;24.52;;;5.80;98.50;;;;;;4971836;28;20136;-74
2022/03/03 09:30:19;;;;;;;32.83;25.25;;;5.90;98.40;;;;;;4984710;28;20050;-76
2022/03/03 09:32:45;;;;;;;29.85;26.40;;;5.90;98.70;;;;;;4971333;28;20046;-75
2022/03/03 09:35:11;;;;;;;27.67;24.67;;;6.00;99.10;;;;;;4961815;28;20104;-76
2022/03/03 09:37:37;;;;;;;26.45;23.58;;;6.10;99.10;;;;;;4985294;28;20046;-75
2022/03/03 09:40:04;;;;;;;26.95;23.98;;;6.10;98.50;;;;;;4946038;28;20500;-76
2022/03/03 09:42:33;;;;;;;27.48;24.35;;;6.20;99.00;;;;;;4983607;28;20560;-76
2022/03/03 09:45:00;;;;;;;25.48;22.73;;;6.30;99.00;;;;;;4998617;28;20096;-76
2022/03/03 09:47:27;;;;;;;25.98;23.05;;;6.40;98.40;;;;;;4968853;28;20492;-79
2022/03/03 09:49:53;;;;;;;26.05;22.77;;;6.50;98.40;;;;;;4964491;28;20046;-76
2022/03/03 09:52:19;;;;;;;26.35;22.60;;;6.60;97.60;;;;;;4983703;28;20045;-78
2022/03/03 09:54:55;;;;;;;29.58;23.90;;;6.60;97.90;;;;;;4983953;28;20034;-77
2022/03/03 09:57:21;;;;;;;25.73;22.27;;;6.70;97.50;;;;;;4977277;28;20057;-77
2022/03/03 09:59:47;;;;;;;25.38;22.55;;;6.80;95.80;;;;;;4982716;28;20038;-77
2022/03/03 10:02:13;;;;;;;26.27;23.50;;;6.90;96.30;;;;;;4982596;28;20354;-77
2022/03/03 10:04:39;;;;;;;26.75;23.90;;;7.00;97.40;;;;;;4982742;28;20113;-78
2022/03/03 10:07:07;;;;;;;25.10;21.77;;;7.10;96.90;;;;;;4967079;28;20515;-78
2022/03/03 10:09:59;;;;;;;28.10;23.27;;;7.10;97.20;;;;;;4977413;28;20050;-78
2022/03/03 10:12:22;;;;;;;24.00;21.50;;;7.20;96.10;;;;;;5002654;28;20058;-78
2022/03/03 10:14:48;;;;;;;24.73;21.23;;;7.30;95.00;;;;;;4998310;28;20042;-77
2022/03/03 10:17:15;;;;;;;24.45;21.83;;;7.30;94.70;;;;;;4982123;28;20133;-77
2022/03/03 10:19:52;;;;;;;22.33;19.92;;;7.30;94.90;;;;;;4963976;28;20465;-78
2022/03/03 10:22:39;;;;;;;21.90;19.55;;;7.50;93.70;;;;;;4986313;28;20549;-77
2022/03/03 10:25:06;;;;;;;23.88;19.70;;;7.40;93.70;;;;;;4975247;28;20050;-77
2022/03/03 10:27:33;;;;;;;23.63;20.88;;;7.40;92.40;;;;;;4975178;28;20057;-78
2022/03/03 10:29:59;;;;;;;23.05;20.08;;;7.30;91.50;;;;;;4979310;28;20042;-77
2022/03/03 10:32:26;;;;;;;23.52;19.67;;;7.30;90.60;;;;;;4970003;28;20060;-76
2022/03/03 10:34:55;;;;;;;24.17;20.38;;;7.40;89.50;;;;;;4967023;28;20050;-76
2022/03/03 10:37:24;;;;;;;23.33;20.83;;;7.40;88.60;;;;;;4963866;28;20050;-76
2022/03/03 10:39:57;;;;;;;23.27;19.90;;;7.40;88.30;;;;;;4965298;28;20053;-77
2022/03/03 10:42:26;;;;;;;23.45;20.88;;;7.50;88.70;;;;;;4967882;28;20054;-77
2022/03/03 10:45:09;;;;;;;25.08;20.60;;;7.60;89.80;;;;;;4967049;28;20046;-76
2022/03/03 10:47:35;;;;;;;23.75;21.25;;;7.60;90.30;;;;;;4972776;28;20046;-76
2022/03/03 10:50:01;;;;;;;24.33;20.75;;;7.70;91.40;;;;;;4996685;28;20120;-78
2022/03/03 10:52:30;;;;;;;21.90;19.38;;;7.80;91.30;;;;;;4971900;28;20050;-78
2022/03/03 10:55:03;;;;;;;24.98;20.58;;;7.90;91.40;;;;;;4985948;28;20489;-78
2022/03/03 10:57:40;;;;;;;23.13;18.23;;;8.00;91.10;;;;;;5002651;28;20507;-78
2022/03/03 11:00:16;;;;;;;21.67;19.35;;;8.10;88.20;;;;;;4985921;28;20038;-78
2022/03/03 11:02:44;;;;;;;21.45;18.70;;;8.10;89.60;;;;;;4987905;28;20045;-77
2022/03/03 11:05:12;;;;;;;20.90;18.48;;;8.20;87.10;;;;;;5005088;28;20063;-77
2022/03/03 11:07:42;;;;;;;19.73;17.58;;;8.20;86.80;;;;;;4979536;28;20045;-78
2022/03/03 11:10:14;;;;;;;20.33;17.60;;;8.20;87.00;;;;;;4995235;28;20125;-77
2022/03/03 11:12:41;;;;;;;21.00;17.98;;;8.30;85.30;;;;;;4992471;28;20074;-79
2022/03/03 11:15:08;;;;;;;20.30;17.55;;;8.30;84.90;;;;;;4976312;28;20081;-77
2022/03/03 11:17:34;;;;;;;20.00;17.90;;;8.40;85.90;;;;;;4970606;28;20137;-76
2022/03/03 11:20:00;;;;;;;20.38;16.58;;;8.50;85.70;;;;;;4989329;28;20050;-77
2022/03/03 11:22:34;;;;;;;19.30;16.73;;;8.60;85.40;;;;;;4976830;28;20105;-77
2022/03/03 11:25:05;;;;;;;18.90;16.80;;;8.70;85.10;;;;;;4973182;28;20042;-79
2022/03/03 11:27:38;;;;;;;19.65;14.98;;;8.70;85.80;;;;;;4985085;28;20497;-78
2022/03/03 11:30:28;;;;;;;19.60;17.02;;;8.80;83.50;;;;;;4969005;28;20049;-78
2022/03/03 11:33:21;;;;;;;18.93;16.10;;;8.90;84.20;;;;;;4978092;28;20054;-77
2022/03/03 11:35:51;;;;;;;18.42;16.00;;;9.00;83.00;;;;;;4990760;28;20224;-76
2022/03/03 11:38:17;;;;;;;;;;;9.20;81.40;;;;;;4986145;28;20042;-78
2022/03/03 11:40:54;;;;;;;18.33;15.38;;;9.30;79.80;;;;;;5003292;28;20001;-77
2022/03/03 11:43:20;;;;;;;17.27;15.23;;;9.30;80.40;;;;;;4997573;28;20432;-78
2022/03/03 11:45:55;;;;;;;17.95;15.93;;;9.30;78.40;;;;;;5002160;28;20058;-77
2022/03/03 11:48:23;;;;;;;19.05;16.65;;;9.30;79.00;;;;;;4975380;28;20545;-77
2022/03/03 11:50:51;;;;;;;20.73;16.67;;;9.30;80.00;;;;;;4989701;28;20069;-77
2022/03/03 11:53:22;;;;;;;19.17;17.05;;;9.40;81.40;;;;;;4994495;28;20413;-76
2022/03/03 11:56:00;;;;;;;18.40;16.17;;;9.50;79.20;;;;;;4978077;28;20085;-77
2022/03/03 11:58:40;;;;;;;18.75;15.95;;;9.50;79.00;;;;;;5004606;28;20046;-77
2022/03/03 12:01:12;;;;;;;21.05;16.50;;;9.50;79.40;;;;;;4990324;28;20058;-78
2022/03/03 12:03:56;;;;;;;18.95;16.13;;;9.50;77.20;;;;;;4986719;28;20331;-78
2022/03/03 12:06:38;;;;;;;20.00;16.52;;;9.60;79.30;;;;;;4986723;28;20046;-79
2022/03/03 12:09:18;;;;;;;20.95;18.30;;;9.60;78.60;;;;;;4986493;28;20034;-78
2022/03/03 12:11:44;;;;;;;22.20;17.55;;;9.70;79.90;;;;;;4985721;28;20452;-79
2022/03/03 12:14:29;;;;;;;19.35;16.95;;;9.70;80.30;;;;;;4983268;28;20129;-78
2022/03/03 12:17:33;;;;;;;20.52;17.42;;;9.80;78.20;;;;;;4988669;28;20050;-75
2022/03/03 12:20:24;;;;;;;21.42;17.52;;;9.80;76.20;;;;;;4969553;28;20054;-77
2022/03/03 12:23:02;;;;;;;21.55;18.63;;;9.80;78.90;;;;;;4985005;28;20369;-75
2022/03/03 12:25:50;;;;;;;20.85;17.77;;;9.90;77.50;;;;;;4969520;28;20732;-75
2022/03/03 12:28:23;;;;;;;19.10;16.85;;;9.90;75.40;;;;;;4969729;28;20108;-74
2022/03/03 12:30:51;;;;;;;19.10;16.65;;;9.80;76.10;;;;;;4985980;28;20050;-79
2022/03/03 12:33:53;;;;;;;20.30;16.27;;;9.80;75.30;;;;;;4991836;28;20412;-79
2022/03/03 12:36:19;;;;;;;19.27;16.73;;;9.80;77.30;;;;;;4987415;28;20034;-76
2022/03/03 12:38:45;;;;;;;19.65;16.20;;;9.90;78.10;;;;;;5001669;28;20539;-76
2022/03/03 12:41:11;;;;;;;18.35;16.35;;;9.90;74.50;;;;;;5001303;28;20471;-79
2022/03/03 12:43:38;;;;;;;20.33;16.65;;;9.90;73.80;;;;;;4980623;28;20050;-78